createdAt,value
2023-10-21T00:00:28.623Z,19.10
2023-10-21T00:03:30.967Z,19.42
2023-10-21T00:06:32.913Z,19.59
2023-10-21T00:09:35.004Z,19.74
2023-10-21T00:12:38.290Z,19.83
2023-10-21T00:15:41.667Z,19.85
2023-10-21T00:18:43.492Z,19.96
2023-10-21T00:21:45.307Z,20.05
2023-10-21T00:24:47.484Z,20.13
2023-10-21T00:27:49.721Z,20.23
2023-10-21T00:30:51.489Z,20.24
2023-10-21T00:33:53.661Z,20.38
2023-10-21T00:36:55.415Z,20.48
2023-10-21T00:39:57.248Z,20.44
2023-10-21T00:42:58.984Z,20.38
2023-10-21T00:46:08.177Z,20.35
2023-10-21T00:49:11.176Z,20.38
2023-10-21T00:52:14.898Z,20.17
2023-10-21T00:55:17.409Z,20.21
2023-10-21T00:58:20.328Z,19.86
2023-10-21T01:01:22.710Z,19.83
2023-10-21T01:04:26.190Z,19.94
2023-10-21T01:07:28.420Z,19.97
2023-10-21T01:10:30.223Z,19.96
2023-10-21T01:13:31.968Z,20.02
2023-10-21T01:16:33.830Z,19.98
2023-10-21T01:19:35.814Z,20.06
2023-10-21T01:22:37.711Z,20.16
2023-10-21T01:25:39.460Z,20.14
2023-10-21T01:28:41.801Z,20.11
2023-10-21T01:31:43.572Z,20.21
2023-10-21T01:34:45.436Z,20.22
2023-10-21T01:37:47.223Z,20.24
2023-10-21T01:40:51.042Z,20.26
2023-10-21T01:43:52.946Z,20.30
2023-10-21T01:46:54.765Z,20.37
2023-10-21T01:49:56.715Z,20.37
2023-10-21T01:52:59.546Z,20.49
2023-10-21T01:56:05.059Z,20.39
2023-10-21T01:59:07.727Z,20.46
2023-10-21T02:02:10.373Z,20.47
2023-10-21T02:05:12.276Z,20.55
2023-10-21T02:08:14.123Z,20.52
2023-10-21T02:11:21.481Z,20.59
2023-10-21T02:14:24.568Z,20.52
2023-10-21T02:17:26.832Z,20.61
2023-10-21T02:20:28.655Z,20.60
2023-10-21T02:23:30.416Z,20.58
2023-10-21T02:26:32.218Z,20.59
2023-10-21T02:29:34.229Z,20.56
2023-10-21T02:32:36.206Z,20.55
2023-10-21T02:35:38.038Z,20.56
2023-10-21T02:38:39.822Z,20.46
2023-10-21T02:41:41.846Z,20.43
2023-10-21T02:44:43.832Z,20.32
2023-10-21T02:47:45.748Z,20.44
2023-10-21T02:50:47.651Z,20.34
2023-10-21T02:53:49.463Z,20.34
2023-10-21T02:56:51.831Z,20.39
2023-10-21T02:59:53.717Z,20.33
2023-10-21T03:02:55.679Z,20.31
2023-10-21T03:05:57.657Z,20.36
2023-10-21T03:09:00.822Z,20.18
2023-10-21T03:12:02.769Z,19.86
2023-10-21T03:15:07.950Z,19.70
2023-10-21T03:18:09.948Z,19.55
2023-10-21T03:21:11.748Z,19.44
2023-10-21T03:24:13.619Z,19.29
2023-10-21T03:27:15.466Z,19.23
2023-10-21T03:30:17.718Z,19.14
2023-10-21T03:33:19.638Z,19.22
2023-10-21T03:36:22.404Z,19.14
2023-10-21T03:39:24.270Z,19.17
2023-10-21T03:42:26.123Z,18.91
2023-10-21T03:45:27.965Z,18.75
2023-10-21T03:48:29.840Z,18.78
2023-10-21T03:51:31.924Z,18.63
2023-10-21T03:54:33.883Z,18.58
2023-10-21T03:57:35.828Z,18.32
2023-10-21T04:00:38.774Z,18.36
2023-10-21T04:03:40.709Z,18.64
2023-10-21T04:06:42.655Z,18.70
2023-10-21T04:09:44.930Z,18.75
2023-10-21T04:12:47.988Z,18.96
2023-10-21T04:15:50.817Z,18.97
2023-10-21T04:18:52.807Z,19.10
2023-10-21T04:21:54.578Z,19.06
2023-10-21T04:24:56.437Z,19.20
2023-10-21T04:27:58.646Z,19.38
2023-10-21T04:31:00.550Z,19.53
2023-10-21T04:34:02.668Z,19.52
2023-10-21T04:37:04.495Z,19.50
2023-10-21T04:40:06.971Z,19.53
2023-10-21T04:43:08.840Z,19.63
2023-10-21T04:46:10.658Z,19.61
2023-10-21T04:49:12.533Z,19.48
2023-10-21T04:52:18.356Z,19.60
2023-10-21T04:55:22.133Z,19.59
2023-10-21T04:58:23.873Z,19.49
2023-10-21T05:01:25.659Z,19.50
2023-10-21T05:04:27.553Z,19.59
2023-10-21T05:07:29.446Z,19.48
2023-10-21T05:10:31.196Z,19.44
2023-10-21T05:13:33.143Z,19.17
2023-10-21T05:16:34.990Z,19.09
2023-10-21T05:19:36.846Z,19.11
2023-10-21T05:22:38.735Z,18.84
2023-10-21T05:25:40.627Z,18.86
2023-10-21T05:28:42.398Z,18.65
2023-10-21T05:31:44.150Z,18.84
2023-10-21T05:34:45.905Z,18.75
2023-10-21T05:37:47.713Z,18.83
2023-10-21T05:40:50.425Z,18.71
2023-10-21T05:43:53.142Z,18.87
2023-10-21T05:46:54.972Z,18.81
2023-10-21T05:49:56.850Z,18.78
2023-10-21T05:52:59.034Z,18.85
2023-10-21T05:56:01.051Z,18.46
2023-10-21T05:59:05.049Z,18.46
2023-10-21T06:02:07.349Z,18.44
2023-10-21T06:05:09.196Z,18.70
2023-10-21T06:08:11.991Z,18.75
2023-10-21T06:11:13.968Z,18.75
2023-10-21T06:14:15.713Z,18.72
2023-10-21T06:17:17.737Z,18.78
2023-10-21T06:20:19.713Z,18.68
2023-10-21T06:23:21.474Z,18.70
2023-10-21T06:26:23.330Z,18.76
2023-10-21T06:29:25.290Z,18.65
2023-10-21T06:32:27.686Z,18.72
2023-10-21T06:35:29.610Z,18.72
2023-10-21T06:38:31.654Z,18.63
2023-10-21T06:41:34.547Z,18.68
2023-10-21T06:44:38.045Z,18.66
2023-10-21T06:47:39.998Z,18.84
2023-10-21T06:50:42.207Z,18.68
2023-10-21T06:53:44.546Z,18.75
2023-10-21T06:56:47.538Z,18.68
2023-10-21T06:59:49.576Z,18.61
2023-10-21T07:02:52.324Z,18.63
2023-10-21T07:05:54.254Z,18.60
2023-10-21T07:08:56.022Z,18.55
2023-10-21T07:11:57.865Z,18.67
2023-10-21T07:14:59.629Z,18.51
2023-10-21T07:18:01.677Z,18.65
2023-10-21T07:21:05.799Z,18.55
2023-10-21T07:24:08.389Z,18.50
2023-10-21T07:27:10.234Z,18.57
2023-10-21T07:30:12.356Z,18.73
2023-10-21T07:33:14.937Z,18.73
2023-10-21T07:36:16.886Z,18.63
2023-10-21T07:39:19.678Z,18.41
2023-10-21T07:42:21.608Z,18.33
2023-10-21T07:45:24.513Z,18.47
2023-10-21T07:48:28.667Z,18.54
2023-10-21T07:51:34.152Z,18.58
2023-10-21T07:54:36.229Z,18.61
2023-10-21T07:57:39.553Z,18.63
2023-10-21T08:00:41.445Z,18.61
2023-10-21T08:03:45.712Z,18.52
2023-10-21T08:06:48.213Z,18.52
2023-10-21T08:09:50.985Z,18.60
2023-10-21T08:12:52.960Z,18.60
2023-10-21T08:15:54.703Z,18.58
2023-10-21T08:18:57.100Z,18.65
2023-10-21T08:21:59.233Z,18.76
2023-10-21T08:25:02.271Z,18.83
2023-10-21T08:28:04.492Z,18.85
2023-10-21T08:31:06.282Z,18.87
2023-10-21T08:34:11.831Z,18.79
2023-10-21T08:37:16.572Z,18.85
2023-10-21T08:40:19.541Z,18.94
2023-10-21T08:43:23.056Z,18.87
2023-10-21T08:46:27.609Z,18.90
2023-10-21T08:49:32.186Z,18.96
2023-10-21T08:52:35.800Z,19.05
2023-10-21T08:55:39.587Z,19.07
2023-10-21T08:58:43.717Z,19.16
2023-10-21T09:01:50.014Z,19.06
2023-10-21T09:04:53.162Z,19.14
2023-10-21T09:07:54.960Z,19.23
2023-10-21T09:11:00.415Z,19.22
2023-10-21T09:14:02.292Z,19.20
2023-10-21T09:17:04.292Z,19.19
2023-10-21T09:20:13.088Z,19.11
2023-10-21T09:23:14.865Z,18.99
2023-10-21T09:26:17.599Z,18.93
2023-10-21T09:29:21.434Z,18.95
2023-10-21T09:32:29.905Z,18.93
2023-10-21T09:35:32.218Z,18.77
2023-10-21T09:38:38.459Z,18.79
2023-10-21T09:41:43.198Z,18.78
2023-10-21T09:44:46.263Z,18.80
2023-10-21T09:47:48.152Z,18.92
2023-10-21T09:50:55.206Z,18.87
2023-10-21T09:54:01.879Z,18.90
2023-10-21T09:57:07.982Z,18.88
2023-10-21T10:00:11.460Z,19.01
2023-10-21T10:03:16.116Z,19.09
2023-10-21T10:06:21.929Z,19.25
2023-10-21T10:09:28.861Z,19.32
2023-10-21T10:12:38.582Z,19.47
2023-10-21T10:15:43.259Z,19.76
2023-10-21T10:18:51.368Z,19.79
2023-10-21T10:21:54.050Z,20.01
2023-10-21T10:24:57.436Z,19.86
2023-10-21T10:28:01.935Z,20.21
2023-10-21T10:31:05.529Z,20.34
2023-10-21T10:34:08.907Z,20.43
2023-10-21T10:37:31.819Z,20.40
2023-10-21T10:40:35.301Z,20.23
2023-10-21T10:43:42.596Z,20.18
2023-10-21T10:46:44.571Z,20.04
2023-10-21T10:50:01.470Z,20.01
2023-10-21T10:53:13.158Z,20.05
2023-10-21T10:56:21.103Z,20.05
2023-10-21T10:59:25.462Z,20.04
2023-10-21T11:02:30.180Z,20.02
2023-10-21T11:05:32.866Z,20.18
2023-10-21T11:08:37.112Z,20.48
2023-10-21T11:11:50.853Z,20.42
2023-10-21T11:15:07.423Z,20.73
2023-10-21T11:18:09.366Z,20.67
2023-10-21T11:21:11.370Z,20.50
2023-10-21T11:24:14.473Z,20.64
2023-10-21T11:27:17.011Z,20.73
2023-10-21T11:30:18.925Z,20.81
2023-10-21T11:33:21.915Z,20.77
2023-10-21T11:36:26.994Z,20.68
2023-10-21T11:39:28.959Z,20.87
2023-10-21T11:42:30.991Z,20.79
2023-10-21T11:45:33.061Z,20.48
2023-10-21T11:48:38.738Z,20.47
2023-10-21T11:51:47.903Z,20.51
2023-10-21T11:55:12.650Z,20.48
2023-10-21T11:58:38.821Z,20.49
2023-10-21T12:02:05.498Z,20.63
2023-10-21T12:05:16.510Z,20.41
2023-10-21T12:08:37.463Z,20.55
2023-10-21T12:11:48.275Z,20.52
2023-10-21T12:15:19.294Z,20.60
2023-10-21T12:18:27.134Z,20.57
2023-10-21T12:21:41.180Z,20.42
2023-10-21T12:25:01.993Z,20.53
2023-10-21T12:28:16.026Z,20.61
2023-10-21T12:31:36.366Z,20.43
2023-10-21T12:34:38.572Z,20.41
2023-10-21T12:37:59.065Z,20.32
2023-10-21T12:41:15.099Z,20.22
2023-10-21T12:44:16.931Z,20.29
2023-10-21T12:47:19.872Z,20.08
2023-10-21T12:50:21.653Z,19.79
2023-10-21T12:53:24.707Z,19.68
2023-10-21T12:56:28.613Z,19.61
2023-10-21T12:59:30.420Z,19.73
2023-10-21T13:02:37.137Z,19.91
2023-10-21T13:05:40.112Z,19.79
2023-10-21T13:08:41.951Z,19.54
2023-10-21T13:11:43.704Z,19.40
2023-10-21T13:14:45.982Z,19.20
2023-10-21T13:17:49.899Z,19.14
2023-10-21T13:20:53.430Z,19.11
2023-10-21T13:23:56.715Z,19.22
2023-10-21T13:26:58.532Z,19.05
2023-10-21T13:30:00.392Z,19.29
2023-10-21T13:33:03.680Z,19.14
2023-10-21T13:36:07.570Z,19.11
2023-10-21T13:39:21.980Z,19.21
2023-10-21T13:42:23.829Z,19.10
2023-10-21T13:45:28.032Z,19.22
2023-10-21T13:48:29.909Z,19.22
2023-10-21T13:51:31.942Z,19.37
2023-10-21T13:54:33.872Z,19.42
2023-10-21T13:57:36.320Z,19.62
2023-10-21T14:00:39.293Z,19.60
2023-10-21T14:03:41.289Z,19.65
2023-10-21T14:06:43.397Z,19.69
2023-10-21T14:09:45.299Z,19.71
2023-10-21T14:12:49.594Z,19.80
2023-10-21T14:15:55.503Z,19.88
2023-10-21T14:18:58.075Z,19.87
2023-10-21T14:22:01.015Z,19.69
2023-10-21T14:25:02.944Z,19.71
2023-10-21T14:28:10.895Z,19.65
2023-10-21T14:31:12.914Z,19.64
2023-10-21T14:34:17.684Z,19.63
2023-10-21T14:37:19.964Z,19.57
2023-10-21T14:40:21.815Z,19.50
2023-10-21T14:43:26.152Z,19.50
2023-10-21T14:46:28.507Z,19.48
2023-10-21T14:49:30.262Z,19.48
2023-10-21T14:52:32.136Z,19.48
2023-10-21T14:55:48.152Z,19.41
2023-10-21T14:58:54.520Z,19.28
2023-10-21T15:01:56.439Z,19.40
2023-10-21T15:04:58.507Z,19.23
2023-10-21T15:08:00.887Z,19.15
2023-10-21T15:11:03.587Z,19.17
2023-10-21T15:14:05.329Z,19.13
2023-10-21T15:17:07.506Z,19.03
2023-10-21T15:20:09.881Z,19.04
2023-10-21T15:23:11.753Z,18.97
2023-10-21T15:26:18.410Z,18.91
2023-10-21T15:29:21.069Z,18.89
2023-10-21T15:32:23.279Z,18.86
2023-10-21T15:35:26.403Z,18.85
2023-10-21T15:38:28.572Z,18.86
2023-10-21T15:41:30.476Z,18.78
2023-10-21T15:44:32.218Z,18.74
2023-10-21T15:47:35.345Z,18.57
2023-10-21T15:50:37.346Z,18.71
2023-10-21T15:53:40.525Z,18.51
2023-10-21T15:56:44.697Z,18.55
2023-10-21T15:59:47.556Z,18.50
2023-10-21T16:02:50.772Z,18.46
2023-10-21T16:05:52.778Z,18.41
2023-10-21T16:08:54.583Z,18.40
2023-10-21T16:11:56.689Z,18.36
2023-10-21T16:14:58.532Z,18.46
2023-10-21T16:18:00.376Z,18.35
2023-10-21T16:21:02.274Z,18.38
2023-10-21T16:24:04.293Z,18.40
2023-10-21T16:27:06.510Z,18.35
2023-10-21T16:30:09.226Z,18.28
2023-10-21T16:33:11.164Z,18.33
2023-10-21T16:36:13.574Z,18.17
2023-10-21T16:39:15.406Z,18.15
2023-10-21T16:42:17.260Z,18.10
2023-10-21T16:45:19.140Z,18.18
2023-10-21T16:48:21.127Z,18.08
2023-10-21T16:51:23.009Z,18.10
2023-10-21T16:54:24.911Z,18.09
2023-10-21T16:57:26.874Z,18.02
2023-10-21T17:00:28.707Z,17.98
2023-10-21T17:03:30.617Z,17.99
2023-10-21T17:06:32.670Z,17.99
2023-10-21T17:09:34.572Z,17.88
2023-10-21T17:12:36.465Z,17.88
2023-10-21T17:15:38.397Z,17.76
2023-10-21T17:18:40.371Z,17.78
2023-10-21T17:21:42.283Z,17.67
2023-10-21T17:24:44.289Z,17.67
2023-10-21T17:27:46.171Z,17.64
2023-10-21T17:30:49.218Z,17.58
2023-10-21T17:33:51.954Z,17.60
2023-10-21T17:36:56.073Z,17.56
2023-10-21T17:39:57.946Z,17.55
2023-10-21T17:42:59.829Z,17.50
2023-10-21T17:46:05.385Z,17.43
2023-10-21T17:49:07.781Z,17.41
2023-10-21T17:52:09.612Z,17.33
2023-10-21T17:55:11.386Z,17.38
2023-10-21T17:58:14.400Z,17.34
2023-10-21T18:01:16.543Z,17.24
2023-10-21T18:04:18.405Z,17.29
2023-10-21T18:07:20.306Z,17.23
2023-10-21T18:10:22.037Z,17.40
2023-10-21T18:13:23.865Z,17.37
2023-10-21T18:16:25.814Z,17.42
2023-10-21T18:19:27.741Z,17.41
2023-10-21T18:22:30.221Z,17.41
2023-10-21T18:25:32.059Z,17.28
2023-10-21T18:28:36.961Z,17.33
2023-10-21T18:31:38.799Z,17.31
2023-10-21T18:34:41.296Z,17.23
2023-10-21T18:37:43.147Z,17.16
2023-10-21T18:40:44.924Z,17.23
2023-10-21T18:43:46.926Z,17.16
2023-10-21T18:46:48.777Z,17.24
2023-10-21T18:49:51.369Z,17.17
2023-10-21T18:52:53.223Z,17.14
2023-10-21T18:55:55.063Z,17.09
2023-10-21T18:59:01.245Z,17.15
2023-10-21T19:02:04.869Z,17.20
2023-10-21T19:05:07.278Z,17.20
2023-10-21T19:08:10.237Z,17.16
2023-10-21T19:11:14.005Z,17.18
2023-10-21T19:14:15.837Z,17.18
2023-10-21T19:17:17.726Z,17.26
2023-10-21T19:20:19.451Z,17.26
2023-10-21T19:23:21.536Z,17.36
2023-10-21T19:26:23.863Z,17.17
2023-10-21T19:29:26.708Z,17.16
2023-10-21T19:32:28.892Z,17.24
2023-10-21T19:35:30.739Z,17.20
2023-10-21T19:38:33.452Z,17.18
2023-10-21T19:41:35.308Z,17.21
2023-10-21T19:44:37.210Z,17.30
2023-10-21T19:47:39.629Z,17.21
2023-10-21T19:50:43.726Z,17.18
2023-10-21T19:53:45.583Z,17.19
2023-10-21T19:56:47.343Z,17.27
2023-10-21T19:59:49.064Z,17.21
2023-10-21T20:02:51.605Z,17.10
2023-10-21T20:05:57.356Z,17.15
2023-10-21T20:08:59.390Z,17.11
2023-10-21T20:12:01.484Z,17.14
2023-10-21T20:15:03.530Z,17.14
2023-10-21T20:18:05.546Z,17.22
2023-10-21T20:21:08.719Z,17.31
2023-10-21T20:24:10.802Z,17.24
2023-10-21T20:27:12.879Z,17.23
2023-10-21T20:30:14.674Z,17.05
2023-10-21T20:33:16.654Z,17.16
2023-10-21T20:36:18.923Z,17.17
2023-10-21T20:39:20.898Z,17.15
2023-10-21T20:42:22.834Z,17.02
2023-10-21T20:45:24.744Z,17.16
2023-10-21T20:48:27.014Z,17.38
2023-10-21T20:51:28.992Z,17.14
2023-10-21T20:54:33.492Z,17.25
2023-10-21T20:57:35.353Z,17.25
2023-10-21T21:00:39.914Z,17.14
2023-10-21T21:03:43.824Z,17.12
2023-10-21T21:06:45.737Z,17.21
2023-10-21T21:09:47.653Z,17.06
2023-10-21T21:12:52.002Z,17.06
2023-10-21T21:15:54.082Z,17.11
2023-10-21T21:18:56.104Z,17.19
2023-10-21T21:21:58.715Z,17.18
2023-10-21T21:25:00.682Z,17.03
2023-10-21T21:28:02.569Z,17.03
2023-10-21T21:31:04.335Z,16.93
2023-10-21T21:34:06.153Z,16.88
2023-10-21T21:37:08.026Z,16.97
2023-10-21T21:40:10.457Z,16.95
2023-10-21T21:43:12.309Z,17.04
2023-10-21T21:46:20.539Z,17.02
2023-10-21T21:49:22.489Z,16.92
2023-10-21T21:52:24.398Z,16.95
2023-10-21T21:55:26.145Z,17.04
2023-10-21T21:58:27.947Z,16.95
2023-10-21T22:01:29.870Z,16.96
2023-10-21T22:04:32.357Z,17.03
2023-10-21T22:07:35.514Z,17.00
2023-10-21T22:10:39.067Z,17.13
2023-10-21T22:13:41.920Z,17.07
2023-10-21T22:16:43.759Z,17.14
2023-10-21T22:19:45.800Z,17.03
2023-10-21T22:22:49.673Z,17.09
2023-10-21T22:25:51.497Z,17.00
2023-10-21T22:28:58.562Z,17.02
2023-10-21T22:32:00.410Z,16.94
2023-10-21T22:35:02.354Z,17.15
2023-10-21T22:38:07.105Z,17.13
2023-10-21T22:41:09.752Z,17.24
2023-10-21T22:44:14.411Z,17.20
2023-10-21T22:47:16.243Z,17.24
2023-10-21T22:50:19.107Z,17.34
2023-10-21T22:53:20.988Z,17.20
2023-10-21T22:56:22.900Z,17.24
2023-10-21T22:59:24.702Z,17.26
2023-10-21T23:02:26.602Z,17.15
2023-10-21T23:05:37.404Z,17.24
2023-10-21T23:08:39.830Z,17.16
2023-10-21T23:11:41.998Z,17.16
2023-10-21T23:14:45.173Z,17.06
2023-10-21T23:17:50.096Z,17.13
2023-10-21T23:20:52.060Z,17.04
2023-10-21T23:23:53.913Z,17.03
2023-10-21T23:26:55.850Z,17.04
2023-10-21T23:29:57.670Z,16.99
2023-10-21T23:33:00.076Z,16.86
2023-10-21T23:36:07.716Z,16.92
2023-10-21T23:39:13.806Z,16.86
2023-10-21T23:42:17.862Z,16.88
2023-10-21T23:45:21.547Z,16.93
2023-10-21T23:48:23.382Z,16.87
2023-10-21T23:51:25.238Z,16.81
2023-10-21T23:54:27.012Z,16.90
2023-10-21T23:57:28.857Z,16.89
